sensor_id;sensor_type;location;lat;lon;timestamp;P1;durP1;ratioP1;P2;durP2;ratioP2
75774;SDS011;64389;51.458;7.556;2022-10-16T11:33:22;3.97;;;0.80;;
75774;SDS011;64389;51.458;7.556;2022-10-16T11:35:37;9.75;;;1.17;;
75774;SDS011;64389;51.458;7.556;2022-10-16T11:37:43;12.00;;;1.40;;
75774;SDS011;64389;51.458;7.556;2022-10-16T11:39:47;9.98;;;1.15;;
75774;SDS011;64389;51.458;7.556;2022-10-16T11:41:53;7.85;;;1.10;;
75774;SDS011;64389;51.458;7.556;2022-10-16T11:44:05;6.50;;;1.00;;
75774;SDS011;64389;51.458;7.556;2022-10-16T11:46:15;6.93;;;0.88;;
75774;SDS011;64389;51.458;7.556;2022-10-16T11:48:23;8.63;;;1.15;;
75774;SDS011;64389;51.458;7.556;2022-10-16T11:50:37;13.15;;;1.30;;
75774;SDS011;64389;51.458;7.556;2022-10-16T11:52:44;12.27;;;1.40;;
75774;SDS011;64389;51.458;7.556;2022-10-16T11:54:53;9.85;;;1.50;;
75774;SDS011;64389;51.458;7.556;2022-10-16T11:57:01;9.98;;;1.70;;
75774;SDS011;64389;51.458;7.556;2022-10-16T11:59:15;4.80;;;1.10;;
75774;SDS011;64389;51.458;7.556;2022-10-16T12:01:28;5.47;;;0.80;;
75774;SDS011;64389;51.458;7.556;2022-10-16T12:03:36;3.47;;;0.57;;
75774;SDS011;64389;51.458;7.556;2022-10-16T12:05:50;6.00;;;0.90;;
75774;SDS011;64389;51.458;7.556;2022-10-16T12:08:10;3.45;;;0.73;;
75774;SDS011;64389;51.458;7.556;2022-10-16T12:10:18;7.63;;;0.80;;
75774;SDS011;64389;51.458;7.556;2022-10-16T12:12:23;2.83;;;0.60;;
75774;SDS011;64389;51.458;7.556;2022-10-16T12:14:38;3.67;;;0.57;;
75774;SDS011;64389;51.458;7.556;2022-10-16T12:16:50;4.40;;;0.60;;
75774;SDS011;64389;51.458;7.556;2022-10-16T12:21:14;3.72;;;0.65;;
75774;SDS011;64389;51.458;7.556;2022-10-16T12:23:19;3.05;;;0.55;;
75774;SDS011;64389;51.458;7.556;2022-10-16T12:25:24;4.50;;;0.70;;
75774;SDS011;64389;51.458;7.556;2022-10-16T12:27:29;2.58;;;0.52;;
75774;SDS011;64389;51.458;7.556;2022-10-16T12:29:32;1.75;;;0.60;;
75774;SDS011;64389;51.458;7.556;2022-10-16T12:31:37;3.50;;;0.60;;
75774;SDS011;64389;51.458;7.556;2022-10-16T12:33:52;5.75;;;0.80;;
75774;SDS011;64389;51.458;7.556;2022-10-16T12:36:00;4.15;;;0.45;;
75774;SDS011;64389;51.458;7.556;2022-10-16T12:38:06;2.53;;;0.60;;
75774;SDS011;64389;51.458;7.556;2022-10-16T12:40:13;4.70;;;0.70;;
75774;SDS011;64389;51.458;7.556;2022-10-16T12:42:22;2.08;;;0.63;;
75774;SDS011;64389;51.458;7.556;2022-10-16T12:44:32;3.35;;;0.70;;
75774;SDS011;64389;51.458;7.556;2022-10-16T12:46:37;3.33;;;0.60;;
75774;SDS011;64389;51.458;7.556;2022-10-16T12:48:41;2.30;;;0.60;;
75774;SDS011;64389;51.458;7.556;2022-10-16T12:50:44;4.70;;;0.70;;
75774;SDS011;64389;51.458;7.556;2022-10-16T12:52:47;2.63;;;0.80;;
75774;SDS011;64389;51.458;7.556;2022-10-16T12:54:49;2.90;;;0.60;;
75774;SDS011;64389;51.458;7.556;2022-10-16T12:56:56;4.13;;;0.68;;
75774;SDS011;64389;51.458;7.556;2022-10-16T12:59:10;6.68;;;0.80;;
75774;SDS011;64389;51.458;7.556;2022-10-16T13:01:24;5.05;;;0.63;;
75774;SDS011;64389;51.458;7.556;2022-10-16T13:03:45;7.22;;;0.70;;
75774;SDS011;64389;51.458;7.556;2022-10-16T13:06:04;4.35;;;0.65;;
75774;SDS011;64389;51.458;7.556;2022-10-16T13:08:24;11.85;;;1.25;;
75774;SDS011;64389;51.458;7.556;2022-10-16T13:10:39;5.00;;;0.70;;
75774;SDS011;64389;51.458;7.556;2022-10-16T13:12:59;8.80;;;0.95;;
75774;SDS011;64389;51.458;7.556;2022-10-16T13:15:22;4.63;;;0.73;;
75774;SDS011;64389;51.458;7.556;2022-10-16T13:17:37;5.45;;;0.77;;
75774;SDS011;64389;51.458;7.556;2022-10-16T13:19:45;4.50;;;0.60;;
75774;SDS011;64389;51.458;7.556;2022-10-16T13:21:55;4.22;;;0.77;;
75774;SDS011;64389;51.458;7.556;2022-10-16T13:24:09;5.05;;;0.82;;
75774;SDS011;64389;51.458;7.556;2022-10-16T13:26:21;1.73;;;0.60;;
75774;SDS011;64389;51.458;7.556;2022-10-16T13:28:33;7.53;;;1.20;;
75774;SDS011;64389;51.458;7.556;2022-10-16T13:30:38;4.53;;;0.80;;
75774;SDS011;64389;51.458;7.556;2022-10-16T13:32:44;3.25;;;0.70;;
75774;SDS011;64389;51.458;7.556;2022-10-16T13:34:48;2.53;;;0.65;;
75774;SDS011;64389;51.458;7.556;2022-10-16T13:36:50;5.32;;;0.65;;
75774;SDS011;64389;51.458;7.556;2022-10-16T13:39:12;2.97;;;0.60;;
75774;SDS011;64389;51.458;7.556;2022-10-16T13:41:16;7.00;;;0.65;;
75774;SDS011;64389;51.458;7.556;2022-10-16T13:43:21;3.30;;;0.50;;
75774;SDS011;64389;51.458;7.556;2022-10-16T13:45:25;4.45;;;0.60;;
75774;SDS011;64389;51.458;7.556;2022-10-16T13:47:28;3.10;;;0.77;;
75774;SDS011;64389;51.458;7.556;2022-10-16T13:49:30;1.13;;;0.45;;
75774;SDS011;64389;51.458;7.556;2022-10-16T13:51:32;4.60;;;0.70;;
75774;SDS011;64389;51.458;7.556;2022-10-16T13:53:35;2.85;;;0.50;;
75774;SDS011;64389;51.458;7.556;2022-10-16T13:55:38;2.33;;;0.50;;
75774;SDS011;64389;51.458;7.556;2022-10-16T13:57:40;1.25;;;0.45;;
75774;SDS011;64389;51.458;7.556;2022-10-16T13:59:42;2.03;;;0.65;;
75774;SDS011;64389;51.458;7.556;2022-10-16T14:01:44;2.28;;;0.60;;
75774;SDS011;64389;51.458;7.556;2022-10-16T14:03:46;3.30;;;0.77;;
75774;SDS011;64389;51.458;7.556;2022-10-16T14:05:49;1.27;;;0.40;;
75774;SDS011;64389;51.458;7.556;2022-10-16T14:07:53;4.57;;;0.70;;
75774;SDS011;64389;51.458;7.556;2022-10-16T14:09:56;3.75;;;0.65;;
75774;SDS011;64389;51.458;7.556;2022-10-16T14:12:07;2.00;;;0.60;;
75774;SDS011;64389;51.458;7.556;2022-10-16T14:14:11;3.60;;;0.73;;
75774;SDS011;64389;51.458;7.556;2022-10-16T14:16:16;6.40;;;0.82;;
75774;SDS011;64389;51.458;7.556;2022-10-16T14:18:21;3.67;;;0.68;;
75774;SDS011;64389;51.458;7.556;2022-10-16T14:20:26;6.00;;;0.80;;
75774;SDS011;64389;51.458;7.556;2022-10-16T14:22:30;4.43;;;0.80;;
75774;SDS011;64389;51.458;7.556;2022-10-16T14:24:34;5.38;;;0.75;;
75774;SDS011;64389;51.458;7.556;2022-10-16T14:26:40;4.78;;;0.80;;
75774;SDS011;64389;51.458;7.556;2022-10-16T14:30:50;4.60;;;0.63;;
75774;SDS011;64389;51.458;7.556;2022-10-16T14:34:55;6.20;;;0.70;;
75774;SDS011;64389;51.458;7.556;2022-10-16T14:36:57;6.03;;;0.93;;
75774;SDS011;64389;51.458;7.556;2022-10-16T14:39:01;3.15;;;0.80;;
75774;SDS011;64389;51.458;7.556;2022-10-16T14:41:05;2.15;;;0.70;;
75774;SDS011;64389;51.458;7.556;2022-10-16T14:43:14;6.03;;;0.95;;
75774;SDS011;64389;51.458;7.556;2022-10-16T14:45:23;6.50;;;0.75;;
75774;SDS011;64389;51.458;7.556;2022-10-16T14:47:27;4.22;;;0.63;;
75774;SDS011;64389;51.458;7.556;2022-10-16T14:49:29;3.50;;;0.70;;
75774;SDS011;64389;51.458;7.556;2022-10-16T14:51:31;3.25;;;0.73;;
75774;SDS011;64389;51.458;7.556;2022-10-16T14:53:33;1.38;;;0.50;;
75774;SDS011;64389;51.458;7.556;2022-10-16T14:55:36;8.68;;;0.90;;
75774;SDS011;64389;51.458;7.556;2022-10-16T14:57:38;4.90;;;0.70;;
75774;SDS011;64389;51.458;7.556;2022-10-16T14:59:40;1.13;;;0.63;;
75774;SDS011;64389;51.458;7.556;2022-10-16T15:01:45;7.85;;;0.90;;
75774;SDS011;64389;51.458;7.556;2022-10-16T15:03:47;4.38;;;1.10;;
75774;SDS011;64389;51.458;7.556;2022-10-16T15:05:52;3.20;;;0.80;;
75774;SDS011;64389;51.458;7.556;2022-10-16T15:07:54;1.92;;;0.77;;
75774;SDS011;64389;51.458;7.556;2022-10-16T15:09:56;2.97;;;0.60;;
75774;SDS011;64389;51.458;7.556;2022-10-16T15:11:58;6.40;;;0.80;;
75774;SDS011;64389;51.458;7.556;2022-10-16T15:14:00;2.92;;;0.80;;
75774;SDS011;64389;51.458;7.556;2022-10-16T15:16:03;5.82;;;0.90;;
75774;SDS011;64389;51.458;7.556;2022-10-16T15:18:06;4.65;;;0.95;;
75774;SDS011;64389;51.458;7.556;2022-10-16T15:20:08;4.20;;;0.70;;
75774;SDS011;64389;51.458;7.556;2022-10-16T15:22:10;111.60;;;32.08;;
75774;SDS011;64389;51.458;7.556;2022-10-16T15:24:13;199.15;;;62.85;;
75774;SDS011;64389;51.458;7.556;2022-10-16T15:26:15;160.38;;;50.08;;
75774;SDS011;64389;51.458;7.556;2022-10-16T15:28:17;121.53;;;40.25;;
75774;SDS011;64389;51.458;7.556;2022-10-16T15:30:20;97.10;;;31.98;;
75774;SDS011;64389;51.458;7.556;2022-10-16T15:32:22;86.00;;;26.92;;
75774;SDS011;64389;51.458;7.556;2022-10-16T15:34:25;85.22;;;24.85;;
75774;SDS011;64389;51.458;7.556;2022-10-16T15:36:27;79.05;;;24.50;;
75774;SDS011;64389;51.458;7.556;2022-10-16T15:38:30;76.07;;;23.45;;
75774;SDS011;64389;51.458;7.556;2022-10-16T15:40:31;70.30;;;23.17;;
75774;SDS011;64389;51.458;7.556;2022-10-16T15:42:33;69.93;;;21.48;;
75774;SDS011;64389;51.458;7.556;2022-10-16T15:44:35;77.20;;;22.20;;
75774;SDS011;64389;51.458;7.556;2022-10-16T15:46:36;58.88;;;19.15;;
75774;SDS011;64389;51.458;7.556;2022-10-16T15:48:38;56.88;;;20.73;;
75774;SDS011;64389;51.458;7.556;2022-10-16T15:50:41;64.90;;;19.50;;
75774;SDS011;64389;51.458;7.556;2022-10-16T15:52:43;57.22;;;17.95;;
75774;SDS011;64389;51.458;7.556;2022-10-16T15:54:45;60.72;;;19.15;;
75774;SDS011;64389;51.458;7.556;2022-10-16T15:56:46;53.38;;;16.77;;
75774;SDS011;64389;51.458;7.556;2022-10-16T15:58:48;56.03;;;16.88;;
75774;SDS011;64389;51.458;7.556;2022-10-16T16:00:54;52.38;;;14.93;;
75774;SDS011;64389;51.458;7.556;2022-10-16T16:02:56;47.50;;;15.55;;
75774;SDS011;64389;51.458;7.556;2022-10-16T16:04:57;49.38;;;15.27;;
75774;SDS011;64389;51.458;7.556;2022-10-16T16:07:00;41.60;;;14.38;;
75774;SDS011;64389;51.458;7.556;2022-10-16T16:09:02;42.97;;;13.98;;
75774;SDS011;64389;51.458;7.556;2022-10-16T16:11:04;40.67;;;14.02;;
75774;SDS011;64389;51.458;7.556;2022-10-16T16:13:08;45.58;;;13.95;;
75774;SDS011;64389;51.458;7.556;2022-10-16T16:15:10;42.03;;;13.60;;
75774;SDS011;64389;51.458;7.556;2022-10-16T16:17:11;70.82;;;20.92;;
75774;SDS011;64389;51.458;7.556;2022-10-16T16:19:13;56.30;;;18.15;;
75774;SDS011;64389;51.458;7.556;2022-10-16T16:21:16;67.22;;;20.13;;
75774;SDS011;64389;51.458;7.556;2022-10-16T16:25:12;55.13;;;18.80;;
75774;SDS011;64389;51.458;7.556;2022-10-16T16:27:14;59.10;;;17.48;;
75774;SDS011;64389;51.458;7.556;2022-10-16T16:29:17;51.25;;;16.02;;
75774;SDS011;64389;51.458;7.556;2022-10-16T16:31:20;57.60;;;17.92;;
75774;SDS011;64389;51.458;7.556;2022-10-16T16:33:26;51.67;;;16.92;;
75774;SDS011;64389;51.458;7.556;2022-10-16T16:35:29;50.03;;;14.77;;
75774;SDS011;64389;51.458;7.556;2022-10-16T16:37:31;42.55;;;14.85;;
75774;SDS011;64389;51.458;7.556;2022-10-16T16:39:34;48.10;;;15.02;;
75774;SDS011;64389;51.458;7.556;2022-10-16T16:41:38;44.15;;;13.50;;
75774;SDS011;64389;51.458;7.556;2022-10-16T16:43:41;49.00;;;14.02;;
75774;SDS011;64389;51.458;7.556;2022-10-16T16:45:44;43.75;;;13.23;;
75774;SDS011;64389;51.458;7.556;2022-10-16T16:47:46;42.00;;;13.95;;
75774;SDS011;64389;51.458;7.556;2022-10-16T16:49:49;40.88;;;12.88;;
75774;SDS011;64389;51.458;7.556;2022-10-16T16:51:52;36.83;;;11.63;;
75774;SDS011;64389;51.458;7.556;2022-10-16T16:53:55;38.08;;;10.82;;
75774;SDS011;64389;51.458;7.556;2022-10-16T16:56:00;34.42;;;11.60;;
75774;SDS011;64389;51.458;7.556;2022-10-16T16:58:06;41.08;;;12.90;;
75774;SDS011;64389;51.458;7.556;2022-10-16T17:00:09;36.20;;;11.02;;
75774;SDS011;64389;51.458;7.556;2022-10-16T17:02:12;39.10;;;11.82;;
75774;SDS011;64389;51.458;7.556;2022-10-16T17:04:15;34.42;;;11.43;;
75774;SDS011;64389;51.458;7.556;2022-10-16T17:06:18;34.47;;;11.52;;
75774;SDS011;64389;51.458;7.556;2022-10-16T17:08:22;30.08;;;10.02;;
75774;SDS011;64389;51.458;7.556;2022-10-16T17:10:25;39.80;;;11.88;;
75774;SDS011;64389;51.458;7.556;2022-10-16T17:12:28;34.85;;;10.57;;
75774;SDS011;64389;51.458;7.556;2022-10-16T17:14:32;31.75;;;10.05;;
75774;SDS011;64389;51.458;7.556;2022-10-16T17:16:35;33.05;;;10.63;;
75774;SDS011;64389;51.458;7.556;2022-10-16T17:18:40;30.08;;;10.15;;
75774;SDS011;64389;51.458;7.556;2022-10-16T17:20:43;29.75;;;10.13;;
75774;SDS011;64389;51.458;7.556;2022-10-16T17:22:46;30.35;;;11.23;;
75774;SDS011;64389;51.458;7.556;2022-10-16T17:24:48;34.33;;;10.38;;
75774;SDS011;64389;51.458;7.556;2022-10-16T17:26:52;26.75;;;9.32;;
75774;SDS011;64389;51.458;7.556;2022-10-16T17:28:55;25.50;;;9.75;;
75774;SDS011;64389;51.458;7.556;2022-10-16T17:31:11;31.17;;;9.40;;
75774;SDS011;64389;51.458;7.556;2022-10-16T17:33:15;23.95;;;8.93;;
75774;SDS011;64389;51.458;7.556;2022-10-16T17:35:18;27.20;;;8.50;;
75774;SDS011;64389;51.458;7.556;2022-10-16T17:37:20;24.40;;;8.85;;
75774;SDS011;64389;51.458;7.556;2022-10-16T17:39:23;28.30;;;9.23;;
75774;SDS011;64389;51.458;7.556;2022-10-16T17:41:26;22.08;;;8.38;;
75774;SDS011;64389;51.458;7.556;2022-10-16T17:43:29;23.13;;;8.48;;
75774;SDS011;64389;51.458;7.556;2022-10-16T17:45:34;21.88;;;8.13;;
75774;SDS011;64389;51.458;7.556;2022-10-16T17:47:39;23.02;;;8.48;;
75774;SDS011;64389;51.458;7.556;2022-10-16T17:49:43;23.30;;;8.25;;
75774;SDS011;64389;51.458;7.556;2022-10-16T17:51:45;21.63;;;6.72;;
75774;SDS011;64389;51.458;7.556;2022-10-16T17:53:52;21.77;;;6.88;;
75774;SDS011;64389;51.458;7.556;2022-10-16T17:56:00;21.98;;;7.18;;
75774;SDS011;64389;51.458;7.556;2022-10-16T17:58:04;21.13;;;6.68;;
75774;SDS011;64389;51.458;7.556;2022-10-16T18:00:07;20.05;;;7.22;;
75774;SDS011;64389;51.458;7.556;2022-10-16T18:02:11;18.63;;;6.55;;
75774;SDS011;64389;51.458;7.556;2022-10-16T18:04:15;24.15;;;7.00;;
75774;SDS011;64389;51.458;7.556;2022-10-16T18:06:19;20.77;;;6.95;;
75774;SDS011;64389;51.458;7.556;2022-10-16T18:08:23;17.67;;;6.35;;
75774;SDS011;64389;51.458;7.556;2022-10-16T18:10:29;16.85;;;6.45;;
75774;SDS011;64389;51.458;7.556;2022-10-16T18:12:31;19.20;;;5.93;;
75774;SDS011;64389;51.458;7.556;2022-10-16T18:14:34;18.40;;;5.70;;
75774;SDS011;64389;51.458;7.556;2022-10-16T18:16:37;15.55;;;4.75;;
75774;SDS011;64389;51.458;7.556;2022-10-16T18:18:41;12.82;;;5.47;;
75774;SDS011;64389;51.458;7.556;2022-10-16T18:20:47;14.63;;;4.90;;
75774;SDS011;64389;51.458;7.556;2022-10-16T18:22:57;15.90;;;5.68;;
75774;SDS011;64389;51.458;7.556;2022-10-16T18:25:00;16.02;;;5.97;;
75774;SDS011;64389;51.458;7.556;2022-10-16T18:27:04;17.25;;;6.13;;
75774;SDS011;64389;51.458;7.556;2022-10-16T18:29:08;18.60;;;5.65;;
75774;SDS011;64389;51.458;7.556;2022-10-16T18:31:12;15.68;;;5.32;;
75774;SDS011;64389;51.458;7.556;2022-10-16T18:33:16;12.52;;;4.80;;
75774;SDS011;64389;51.458;7.556;2022-10-16T18:35:18;16.90;;;5.55;;
75774;SDS011;64389;51.458;7.556;2022-10-16T18:37:23;13.63;;;4.90;;
75774;SDS011;64389;51.458;7.556;2022-10-16T18:39:26;16.23;;;5.07;;
75774;SDS011;64389;51.458;7.556;2022-10-16T18:41:28;18.92;;;5.05;;
75774;SDS011;64389;51.458;7.556;2022-10-16T18:43:32;14.32;;;5.43;;
75774;SDS011;64389;51.458;7.556;2022-10-16T18:45:36;12.05;;;4.97;;
75774;SDS011;64389;51.458;7.556;2022-10-16T18:47:39;15.55;;;5.00;;
75774;SDS011;64389;51.458;7.556;2022-10-16T18:49:42;14.00;;;4.72;;
75774;SDS011;64389;51.458;7.556;2022-10-16T18:51:46;13.82;;;5.00;;
75774;SDS011;64389;51.458;7.556;2022-10-16T18:53:54;14.35;;;5.10;;
75774;SDS011;64389;51.458;7.556;2022-10-16T18:55:58;14.02;;;4.82;;
75774;SDS011;64389;51.458;7.556;2022-10-16T18:58:01;12.60;;;4.90;;
75774;SDS011;64389;51.458;7.556;2022-10-16T19:00:04;16.63;;;4.78;;
75774;SDS011;64389;51.458;7.556;2022-10-16T19:02:09;14.35;;;5.25;;
75774;SDS011;64389;51.458;7.556;2022-10-16T19:04:14;9.95;;;3.95;;
75774;SDS011;64389;51.458;7.556;2022-10-16T19:06:17;13.52;;;4.68;;
75774;SDS011;64389;51.458;7.556;2022-10-16T19:08:20;12.77;;;4.45;;
75774;SDS011;64389;51.458;7.556;2022-10-16T19:10:24;12.52;;;4.75;;
75774;SDS011;64389;51.458;7.556;2022-10-16T19:12:27;10.85;;;4.30;;
75774;SDS011;64389;51.458;7.556;2022-10-16T19:14:30;12.23;;;4.00;;
75774;SDS011;64389;51.458;7.556;2022-10-16T19:16:34;13.15;;;4.30;;
75774;SDS011;64389;51.458;7.556;2022-10-16T19:18:37;11.05;;;4.45;;
75774;SDS011;64389;51.458;7.556;2022-10-16T19:20:40;13.13;;;4.20;;
75774;SDS011;64389;51.458;7.556;2022-10-16T19:22:43;12.68;;;4.38;;
75774;SDS011;64389;51.458;7.556;2022-10-16T19:24:57;9.50;;;3.35;;
75774;SDS011;64389;51.458;7.556;2022-10-16T19:27:01;10.18;;;3.80;;
75774;SDS011;64389;51.458;7.556;2022-10-16T19:29:04;9.88;;;4.25;;
75774;SDS011;64389;51.458;7.556;2022-10-16T19:31:08;10.73;;;3.92;;
75774;SDS011;64389;51.458;7.556;2022-10-16T19:33:12;9.73;;;4.18;;
75774;SDS011;64389;51.458;7.556;2022-10-16T19:35:15;11.80;;;3.90;;
75774;SDS011;64389;51.458;7.556;2022-10-16T19:37:18;12.77;;;4.38;;
75774;SDS011;64389;51.458;7.556;2022-10-16T19:39:25;11.20;;;3.88;;
75774;SDS011;64389;51.458;7.556;2022-10-16T19:41:28;13.32;;;3.40;;
75774;SDS011;64389;51.458;7.556;2022-10-16T19:43:34;11.00;;;4.15;;
75774;SDS011;64389;51.458;7.556;2022-10-16T19:45:36;11.30;;;4.00;;
75774;SDS011;64389;51.458;7.556;2022-10-16T19:47:39;9.52;;;3.85;;
75774;SDS011;64389;51.458;7.556;2022-10-16T19:49:44;12.05;;;3.75;;
75774;SDS011;64389;51.458;7.556;2022-10-16T19:51:47;9.98;;;3.33;;
75774;SDS011;64389;51.458;7.556;2022-10-16T19:53:52;8.45;;;3.92;;
75774;SDS011;64389;51.458;7.556;2022-10-16T19:55:57;9.73;;;3.35;;
75774;SDS011;64389;51.458;7.556;2022-10-16T19:58:00;9.98;;;4.00;;
75774;SDS011;64389;51.458;7.556;2022-10-16T20:00:06;8.68;;;3.17;;
75774;SDS011;64389;51.458;7.556;2022-10-16T20:02:10;9.60;;;3.95;;
75774;SDS011;64389;51.458;7.556;2022-10-16T20:04:13;9.38;;;4.00;;
75774;SDS011;64389;51.458;7.556;2022-10-16T20:06:17;9.23;;;3.65;;
75774;SDS011;64389;51.458;7.556;2022-10-16T20:08:21;7.40;;;3.30;;
75774;SDS011;64389;51.458;7.556;2022-10-16T20:10:24;10.23;;;3.33;;
75774;SDS011;64389;51.458;7.556;2022-10-16T20:12:27;9.45;;;3.45;;
75774;SDS011;64389;51.458;7.556;2022-10-16T20:14:30;11.77;;;4.15;;
75774;SDS011;64389;51.458;7.556;2022-10-16T20:16:34;9.57;;;3.40;;
75774;SDS011;64389;51.458;7.556;2022-10-16T20:18:37;7.25;;;2.63;;
75774;SDS011;64389;51.458;7.556;2022-10-16T20:20:40;7.97;;;3.38;;
75774;SDS011;64389;51.458;7.556;2022-10-16T20:22:44;6.90;;;3.00;;
75774;SDS011;64389;51.458;7.556;2022-10-16T20:24:47;10.25;;;2.75;;
75774;SDS011;64389;51.458;7.556;2022-10-16T20:26:49;11.73;;;2.63;;
75774;SDS011;64389;51.458;7.556;2022-10-16T20:28:52;8.60;;;2.45;;
75774;SDS011;64389;51.458;7.556;2022-10-16T20:30:55;11.93;;;3.22;;
75774;SDS011;64389;51.458;7.556;2022-10-16T20:33:00;9.68;;;2.53;;
75774;SDS011;64389;51.458;7.556;2022-10-16T20:35:02;11.32;;;3.10;;
75774;SDS011;64389;51.458;7.556;2022-10-16T20:37:08;6.95;;;2.60;;
75774;SDS011;64389;51.458;7.556;2022-10-16T20:39:10;12.80;;;3.08;;
75774;SDS011;64389;51.458;7.556;2022-10-16T20:41:15;9.80;;;3.00;;
75774;SDS011;64389;51.458;7.556;2022-10-16T20:43:18;7.25;;;2.45;;
75774;SDS011;64389;51.458;7.556;2022-10-16T20:45:21;8.75;;;2.80;;
75774;SDS011;64389;51.458;7.556;2022-10-16T20:47:24;8.50;;;2.50;;
75774;SDS011;64389;51.458;7.556;2022-10-16T20:49:28;6.13;;;2.90;;
75774;SDS011;64389;51.458;7.556;2022-10-16T20:51:41;7.78;;;2.67;;
75774;SDS011;64389;51.458;7.556;2022-10-16T20:53:44;7.43;;;2.47;;
75774;SDS011;64389;51.458;7.556;2022-10-16T20:55:48;7.15;;;2.88;;
75774;SDS011;64389;51.458;7.556;2022-10-16T20:57:50;10.00;;;2.42;;
75774;SDS011;64389;51.458;7.556;2022-10-16T20:59:53;6.07;;;2.72;;
75774;SDS011;64389;51.458;7.556;2022-10-16T21:01:56;8.18;;;2.40;;
75774;SDS011;64389;51.458;7.556;2022-10-16T21:03:59;9.70;;;2.78;;
75774;SDS011;64389;51.458;7.556;2022-10-16T21:06:05;7.55;;;3.13;;
75774;SDS011;64389;51.458;7.556;2022-10-16T21:08:09;6.75;;;2.60;;
75774;SDS011;64389;51.458;7.556;2022-10-16T21:10:12;7.10;;;2.67;;
75774;SDS011;64389;51.458;7.556;2022-10-16T21:12:16;6.03;;;2.25;;
75774;SDS011;64389;51.458;7.556;2022-10-16T21:14:18;6.88;;;2.60;;
75774;SDS011;64389;51.458;7.556;2022-10-16T21:16:22;6.28;;;2.53;;
75774;SDS011;64389;51.458;7.556;2022-10-16T21:18:26;7.97;;;2.50;;
75774;SDS011;64389;51.458;7.556;2022-10-16T21:20:29;5.43;;;2.35;;
75774;SDS011;64389;51.458;7.556;2022-10-16T21:22:33;5.63;;;2.53;;
75774;SDS011;64389;51.458;7.556;2022-10-16T21:24:36;7.47;;;3.03;;
75774;SDS011;64389;51.458;7.556;2022-10-16T21:26:40;8.80;;;2.55;;
75774;SDS011;64389;51.458;7.556;2022-10-16T21:28:43;6.18;;;2.47;;
75774;SDS011;64389;51.458;7.556;2022-10-16T21:30:46;6.82;;;2.80;;
75774;SDS011;64389;51.458;7.556;2022-10-16T21:32:48;5.40;;;2.35;;
75774;SDS011;64389;51.458;7.556;2022-10-16T21:34:51;9.13;;;2.58;;
75774;SDS011;64389;51.458;7.556;2022-10-16T21:36:53;6.70;;;2.10;;
75774;SDS011;64389;51.458;7.556;2022-10-16T21:39:00;6.28;;;2.58;;
75774;SDS011;64389;51.458;7.556;2022-10-16T21:41:10;7.82;;;2.40;;
75774;SDS011;64389;51.458;7.556;2022-10-16T21:43:13;7.15;;;2.28;;
75774;SDS011;64389;51.458;7.556;2022-10-16T21:45:16;6.90;;;2.40;;
75774;SDS011;64389;51.458;7.556;2022-10-16T21:47:19;8.43;;;2.72;;
75774;SDS011;64389;51.458;7.556;2022-10-16T21:49:21;5.28;;;2.25;;
75774;SDS011;64389;51.458;7.556;2022-10-16T21:51:24;5.47;;;2.50;;
75774;SDS011;64389;51.458;7.556;2022-10-16T21:53:28;8.00;;;2.58;;
75774;SDS011;64389;51.458;7.556;2022-10-16T21:55:35;6.90;;;2.65;;
75774;SDS011;64389;51.458;7.556;2022-10-16T21:57:38;6.72;;;2.65;;
75774;SDS011;64389;51.458;7.556;2022-10-16T21:59:41;7.55;;;2.85;;
75774;SDS011;64389;51.458;7.556;2022-10-16T22:01:43;6.88;;;2.67;;
75774;SDS011;64389;51.458;7.556;2022-10-16T22:03:46;8.55;;;2.38;;
75774;SDS011;64389;51.458;7.556;2022-10-16T22:05:49;5.68;;;2.20;;
75774;SDS011;64389;51.458;7.556;2022-10-16T22:07:52;6.35;;;2.38;;
75774;SDS011;64389;51.458;7.556;2022-10-16T22:09:55;7.35;;;2.40;;
75774;SDS011;64389;51.458;7.556;2022-10-16T22:11:59;9.88;;;2.50;;
75774;SDS011;64389;51.458;7.556;2022-10-16T22:14:02;7.65;;;2.72;;
75774;SDS011;64389;51.458;7.556;2022-10-16T22:16:06;7.53;;;2.70;;
75774;SDS011;64389;51.458;7.556;2022-10-16T22:18:09;6.45;;;2.65;;
75774;SDS011;64389;51.458;7.556;2022-10-16T22:20:11;7.82;;;2.60;;
75774;SDS011;64389;51.458;7.556;2022-10-16T22:22:14;9.77;;;2.53;;
75774;SDS011;64389;51.458;7.556;2022-10-16T22:24:17;6.50;;;2.45;;
75774;SDS011;64389;51.458;7.556;2022-10-16T22:26:20;6.05;;;2.33;;
75774;SDS011;64389;51.458;7.556;2022-10-16T22:28:24;6.80;;;2.45;;
75774;SDS011;64389;51.458;7.556;2022-10-16T22:30:27;6.55;;;2.50;;
75774;SDS011;64389;51.458;7.556;2022-10-16T22:32:29;7.63;;;2.40;;
75774;SDS011;64389;51.458;7.556;2022-10-16T22:34:33;6.40;;;2.17;;
75774;SDS011;64389;51.458;7.556;2022-10-16T22:36:36;5.95;;;2.65;;
75774;SDS011;64389;51.458;7.556;2022-10-16T22:38:39;9.77;;;2.20;;
75774;SDS011;64389;51.458;7.556;2022-10-16T22:40:42;6.78;;;2.58;;
75774;SDS011;64389;51.458;7.556;2022-10-16T22:42:45;7.97;;;2.40;;
75774;SDS011;64389;51.458;7.556;2022-10-16T22:44:49;7.13;;;2.40;;
75774;SDS011;64389;51.458;7.556;2022-10-16T22:46:52;6.78;;;2.17;;
75774;SDS011;64389;51.458;7.556;2022-10-16T22:48:55;5.75;;;2.50;;
75774;SDS011;64389;51.458;7.556;2022-10-16T22:50:58;6.53;;;2.28;;
75774;SDS011;64389;51.458;7.556;2022-10-16T22:53:01;6.03;;;2.22;;
75774;SDS011;64389;51.458;7.556;2022-10-16T22:55:04;5.75;;;2.40;;
75774;SDS011;64389;51.458;7.556;2022-10-16T22:57:07;4.90;;;2.25;;
75774;SDS011;64389;51.458;7.556;2022-10-16T22:59:10;12.35;;;2.50;;
75774;SDS011;64389;51.458;7.556;2022-10-16T23:01:15;5.30;;;2.30;;
75774;SDS011;64389;51.458;7.556;2022-10-16T23:03:19;6.00;;;2.60;;
75774;SDS011;64389;51.458;7.556;2022-10-16T23:05:22;7.57;;;2.38;;
75774;SDS011;64389;51.458;7.556;2022-10-16T23:07:24;4.43;;;2.50;;
75774;SDS011;64389;51.458;7.556;2022-10-16T23:09:27;6.13;;;2.00;;
75774;SDS011;64389;51.458;7.556;2022-10-16T23:11:29;7.90;;;2.17;;
75774;SDS011;64389;51.458;7.556;2022-10-16T23:13:34;6.25;;;2.45;;
75774;SDS011;64389;51.458;7.556;2022-10-16T23:15:38;4.95;;;1.73;;
75774;SDS011;64389;51.458;7.556;2022-10-16T23:17:42;4.40;;;2.20;;
75774;SDS011;64389;51.458;7.556;2022-10-16T23:19:45;4.45;;;1.77;;
75774;SDS011;64389;51.458;7.556;2022-10-16T23:21:47;5.43;;;1.55;;
75774;SDS011;64389;51.458;7.556;2022-10-16T23:23:50;4.55;;;1.90;;
75774;SDS011;64389;51.458;7.556;2022-10-16T23:25:54;4.47;;;2.30;;
75774;SDS011;64389;51.458;7.556;2022-10-16T23:27:56;4.78;;;2.00;;
75774;SDS011;64389;51.458;7.556;2022-10-16T23:29:59;5.70;;;2.13;;
75774;SDS011;64389;51.458;7.556;2022-10-16T23:32:02;3.55;;;2.03;;
75774;SDS011;64389;51.458;7.556;2022-10-16T23:34:06;6.15;;;1.70;;
75774;SDS011;64389;51.458;7.556;2022-10-16T23:36:10;5.97;;;2.20;;
75774;SDS011;64389;51.458;7.556;2022-10-16T23:38:14;5.07;;;2.33;;
75774;SDS011;64389;51.458;7.556;2022-10-16T23:40:16;6.03;;;1.98;;
75774;SDS011;64389;51.458;7.556;2022-10-16T23:42:19;5.70;;;2.28;;
75774;SDS011;64389;51.458;7.556;2022-10-16T23:44:22;6.55;;;2.00;;
75774;SDS011;64389;51.458;7.556;2022-10-16T23:46:25;5.45;;;2.08;;
75774;SDS011;64389;51.458;7.556;2022-10-16T23:48:27;5.07;;;2.20;;
75774;SDS011;64389;51.458;7.556;2022-10-16T23:50:31;6.32;;;2.42;;
75774;SDS011;64389;51.458;7.556;2022-10-16T23:52:34;5.32;;;1.80;;
75774;SDS011;64389;51.458;7.556;2022-10-16T23:54:36;6.30;;;2.00;;
75774;SDS011;64389;51.458;7.556;2022-10-16T23:56:39;4.70;;;1.80;;
75774;SDS011;64389;51.458;7.556;2022-10-16T23:58:42;4.68;;;2.13;;
